createdAt,value
2023-06-28T00:00:24.780Z,7.93
2023-06-28T00:02:51.488Z,7.20
2023-06-28T00:05:18.217Z,7.40
2023-06-28T00:07:44.725Z,6.90
2023-06-28T00:10:11.465Z,7.45
2023-06-28T00:12:38.152Z,7.68
2023-06-28T00:15:05.305Z,7.90
2023-06-28T00:17:31.894Z,7.20
2023-06-28T00:20:07.134Z,7.78
2023-06-28T00:22:34.464Z,7.80
2023-06-28T00:25:05.769Z,7.50
2023-06-28T00:27:33.004Z,7.53
2023-06-28T00:29:59.949Z,7.38
2023-06-28T00:32:27.306Z,7.88
2023-06-28T00:34:54.007Z,7.90
2023-06-28T00:37:20.556Z,7.82
2023-06-28T00:39:47.661Z,7.53
2023-06-28T00:42:14.308Z,8.15
2023-06-28T00:44:40.846Z,7.40
2023-06-28T00:47:07.744Z,7.57
2023-06-28T00:49:37.445Z,7.88
2023-06-28T00:52:05.139Z,7.90
2023-06-28T00:54:31.718Z,7.82
2023-06-28T00:56:58.755Z,7.97
2023-06-28T00:59:25.263Z,7.72
2023-06-28T01:01:52.230Z,7.57
2023-06-28T01:04:18.884Z,7.78
2023-06-28T01:06:53.025Z,7.88
2023-06-28T01:09:21.530Z,7.88
2023-06-28T01:11:49.549Z,7.90
2023-06-28T01:14:16.395Z,7.97
2023-06-28T01:16:43.034Z,7.78
2023-06-28T01:19:10.744Z,8.05
2023-06-28T01:21:39.754Z,7.90
2023-06-28T01:24:06.557Z,7.80
2023-06-28T01:26:33.926Z,8.30
2023-06-28T01:29:00.668Z,8.20
2023-06-28T01:31:29.669Z,7.97
2023-06-28T01:33:56.310Z,7.88
2023-06-28T01:36:23.568Z,8.77
2023-06-28T01:38:50.452Z,8.82
2023-06-28T01:41:18.225Z,8.13
2023-06-28T01:43:44.918Z,8.98
2023-06-28T01:46:12.170Z,8.88
2023-06-28T01:48:39.058Z,8.27
2023-06-28T01:51:05.775Z,9.13
2023-06-28T01:53:32.410Z,8.60
2023-06-28T01:55:59.007Z,8.30
2023-06-28T01:58:25.688Z,8.30
2023-06-28T02:00:52.312Z,8.60
2023-06-28T02:03:19.066Z,7.90
2023-06-28T02:05:45.767Z,8.70
2023-06-28T02:08:12.325Z,8.15
2023-06-28T02:10:39.234Z,8.23
2023-06-28T02:13:05.806Z,8.45
2023-06-28T02:15:32.374Z,8.80
2023-06-28T02:17:59.743Z,8.70
2023-06-28T02:20:26.460Z,8.35
2023-06-28T02:22:53.069Z,8.18
2023-06-28T02:25:19.586Z,8.23
2023-06-28T02:27:46.138Z,8.20
2023-06-28T02:30:12.873Z,8.27
2023-06-28T02:32:39.504Z,8.05
2023-06-28T02:35:06.360Z,9.07
2023-06-28T02:37:32.937Z,8.40
2023-06-28T02:39:59.592Z,8.23
2023-06-28T02:42:26.138Z,8.40
2023-06-28T02:44:52.651Z,7.82
2023-06-28T02:47:19.184Z,8.13
2023-06-28T02:49:45.664Z,8.38
2023-06-28T02:52:12.659Z,8.20
2023-06-28T02:54:39.169Z,8.07
2023-06-28T02:57:09.531Z,8.40
2023-06-28T02:59:36.094Z,8.35
2023-06-28T03:02:06.099Z,8.68
2023-06-28T03:04:33.966Z,8.68
2023-06-28T03:07:00.646Z,8.00
2023-06-28T03:09:27.230Z,8.07
2023-06-28T03:11:53.789Z,8.30
2023-06-28T03:14:20.277Z,8.48
2023-06-28T03:16:46.804Z,9.05
2023-06-28T03:19:13.327Z,8.70
2023-06-28T03:21:39.788Z,8.48
2023-06-28T03:24:06.617Z,8.40
2023-06-28T03:26:33.167Z,8.32
2023-06-28T03:28:59.809Z,8.65
2023-06-28T03:31:26.345Z,8.35
2023-06-28T03:33:52.984Z,8.27
2023-06-28T03:36:20.248Z,8.00
2023-06-28T03:38:46.833Z,8.15
2023-06-28T03:41:14.282Z,7.60
2023-06-28T03:43:40.829Z,8.43
2023-06-28T03:46:07.437Z,9.43
2023-06-28T03:48:33.973Z,8.77
2023-06-28T03:51:00.488Z,8.43
2023-06-28T03:53:27.026Z,8.75
2023-06-28T03:55:53.679Z,8.50
2023-06-28T03:58:20.371Z,8.95
2023-06-28T04:00:46.937Z,8.25
2023-06-28T04:03:13.541Z,7.88
2023-06-28T04:05:40.111Z,8.25
2023-06-28T04:08:10.066Z,8.07
2023-06-28T04:10:40.039Z,8.45
2023-06-28T04:13:07.555Z,8.75
2023-06-28T04:15:34.202Z,8.88
2023-06-28T04:18:00.822Z,8.80
2023-06-28T04:20:27.522Z,8.32
2023-06-28T04:22:54.433Z,9.00
2023-06-28T04:25:21.000Z,8.50
2023-06-28T04:27:47.687Z,8.30
2023-06-28T04:30:14.271Z,8.50
2023-06-28T04:32:44.100Z,8.82
2023-06-28T04:35:11.096Z,8.65
2023-06-28T04:37:41.231Z,7.63
2023-06-28T04:40:08.990Z,8.00
2023-06-28T04:42:35.898Z,8.45
2023-06-28T04:45:02.659Z,7.63
2023-06-28T04:47:29.511Z,8.25
2023-06-28T04:49:56.244Z,7.70
2023-06-28T04:52:24.196Z,8.27
2023-06-28T04:54:51.048Z,8.00
2023-06-28T04:57:18.540Z,8.48
2023-06-28T04:59:45.087Z,8.27
2023-06-28T05:02:11.740Z,8.33
2023-06-28T05:04:39.029Z,9.60
2023-06-28T05:07:06.894Z,12.43
2023-06-28T05:09:34.672Z,9.30
2023-06-28T05:12:01.927Z,9.75
2023-06-28T05:14:30.280Z,8.50
2023-06-28T05:16:57.078Z,9.10
2023-06-28T05:19:24.475Z,9.40
2023-06-28T05:21:51.358Z,8.90
2023-06-28T05:24:18.977Z,8.35
2023-06-28T05:26:45.825Z,9.25
2023-06-28T05:29:12.398Z,9.23
2023-06-28T05:31:39.886Z,9.50
2023-06-28T05:34:06.606Z,10.98
2023-06-28T05:36:33.544Z,10.57
2023-06-28T05:39:00.292Z,10.30
2023-06-28T05:41:26.953Z,11.30
2023-06-28T05:43:53.613Z,13.15
2023-06-28T05:46:20.562Z,12.07
2023-06-28T05:48:47.708Z,12.07
2023-06-28T05:51:15.466Z,12.07
2023-06-28T05:53:42.479Z,10.35
2023-06-28T05:56:09.271Z,9.40
2023-06-28T05:58:35.891Z,8.93
2023-06-28T06:01:02.887Z,9.13
2023-06-28T06:03:29.683Z,9.40
2023-06-28T06:05:57.084Z,10.68
2023-06-28T06:08:24.756Z,9.23
2023-06-28T06:10:51.285Z,9.13
2023-06-28T06:13:17.868Z,8.63
2023-06-28T06:15:44.496Z,8.77
2023-06-28T06:18:11.188Z,9.57
2023-06-28T06:20:37.837Z,8.60
2023-06-28T06:23:04.617Z,8.15
2023-06-28T06:25:31.288Z,8.45
2023-06-28T06:27:57.986Z,8.90
2023-06-28T06:30:24.734Z,9.30
2023-06-28T06:32:51.490Z,9.70
2023-06-28T06:35:18.301Z,9.60
2023-06-28T06:37:47.236Z,8.57
2023-06-28T06:40:14.424Z,8.52
2023-06-28T06:42:41.253Z,8.90
2023-06-28T06:45:08.247Z,8.60
2023-06-28T06:47:38.295Z,8.65
2023-06-28T06:50:06.332Z,8.80
2023-06-28T06:52:33.234Z,8.13
2023-06-28T06:55:00.046Z,8.10
2023-06-28T06:57:26.892Z,8.32
2023-06-28T06:59:53.653Z,7.72
2023-06-28T07:02:22.412Z,7.72
2023-06-28T07:04:49.728Z,7.47
2023-06-28T07:07:16.889Z,7.88
2023-06-28T07:09:43.557Z,7.78
2023-06-28T07:12:10.756Z,7.78
2023-06-28T07:14:37.528Z,7.70
2023-06-28T07:17:07.581Z,8.07
2023-06-28T07:19:34.221Z,7.38
2023-06-28T07:22:00.912Z,8.18
2023-06-28T07:24:27.597Z,7.63
2023-06-28T07:26:54.338Z,7.68
2023-06-28T07:29:20.908Z,7.72
2023-06-28T07:31:47.531Z,7.60
2023-06-28T07:34:16.089Z,7.47
2023-06-28T07:36:42.906Z,7.55
2023-06-28T07:39:12.578Z,7.15
2023-06-28T07:41:39.232Z,7.50
2023-06-28T07:44:05.952Z,7.35
2023-06-28T07:46:32.820Z,7.70
2023-06-28T07:49:00.835Z,7.65
2023-06-28T07:51:27.734Z,6.57
2023-06-28T07:53:54.386Z,7.10
2023-06-28T07:56:21.271Z,6.90
2023-06-28T07:58:48.078Z,6.95
2023-06-28T08:01:16.308Z,7.50
2023-06-28T08:03:43.099Z,7.85
2023-06-28T08:06:10.045Z,7.50
2023-06-28T08:08:36.702Z,7.85
2023-06-28T08:11:03.486Z,7.70
2023-06-28T08:13:30.272Z,7.60
2023-06-28T08:15:56.975Z,7.38
2023-06-28T08:18:23.671Z,7.32
2023-06-28T08:20:50.562Z,6.72
2023-06-28T08:23:17.534Z,7.30
2023-06-28T08:25:44.641Z,6.78
2023-06-28T08:28:11.568Z,7.28
2023-06-28T08:30:38.232Z,6.75
2023-06-28T08:33:04.998Z,6.65
2023-06-28T08:35:31.809Z,7.28
2023-06-28T08:37:58.451Z,6.80
2023-06-28T08:40:29.084Z,7.55
2023-06-28T08:45:23.472Z,7.05
2023-06-28T08:47:50.365Z,7.20
2023-06-28T08:50:17.658Z,6.65
2023-06-28T08:52:44.967Z,6.55
2023-06-28T08:55:13.571Z,7.13
2023-06-28T08:57:42.185Z,7.10
2023-06-28T09:00:12.040Z,7.53
2023-06-28T09:02:42.462Z,6.75
2023-06-28T09:05:10.953Z,7.03
2023-06-28T09:07:40.466Z,7.45
2023-06-28T09:10:08.900Z,8.20
2023-06-28T09:12:35.977Z,7.38
2023-06-28T09:15:04.392Z,7.18
2023-06-28T09:17:31.145Z,7.25
2023-06-28T09:20:03.489Z,7.40
2023-06-28T09:22:30.507Z,7.70
2023-06-28T09:25:02.802Z,7.75
2023-06-28T09:27:30.876Z,7.50
2023-06-28T09:30:02.419Z,8.45
2023-06-28T09:32:40.203Z,7.70
2023-06-28T09:35:13.579Z,8.00
2023-06-28T09:37:40.396Z,8.02
2023-06-28T09:40:07.868Z,7.88
2023-06-28T09:42:46.192Z,7.90
2023-06-28T09:45:27.553Z,6.70
2023-06-28T09:47:59.239Z,6.80
2023-06-28T09:50:45.739Z,6.82
2023-06-28T09:53:17.062Z,6.97
2023-06-28T09:55:45.220Z,7.15
2023-06-28T09:58:14.113Z,7.18
2023-06-28T10:00:42.296Z,7.40
2023-06-28T10:03:10.868Z,7.03
2023-06-28T10:05:39.838Z,7.05
2023-06-28T10:08:10.156Z,7.18
2023-06-28T10:10:38.287Z,8.77
2023-06-28T10:13:13.261Z,8.00
2023-06-28T10:15:56.541Z,7.35
2023-06-28T10:18:23.773Z,7.68
2023-06-28T10:20:51.174Z,8.20
2023-06-28T10:23:18.600Z,8.73
2023-06-28T10:25:47.056Z,8.20
2023-06-28T10:28:14.494Z,9.25
2023-06-28T10:30:43.365Z,8.50
2023-06-28T10:33:10.922Z,8.90
2023-06-28T10:35:38.247Z,7.78
2023-06-28T10:38:05.531Z,8.65
2023-06-28T10:40:32.430Z,9.45
2023-06-28T10:42:59.280Z,9.93
2023-06-28T10:45:36.852Z,9.18
2023-06-28T10:48:04.348Z,7.93
2023-06-28T10:50:42.534Z,9.00
2023-06-28T10:53:19.882Z,8.32
2023-06-28T10:56:19.112Z,8.00
2023-06-28T10:58:48.814Z,8.75
2023-06-28T11:01:39.382Z,10.63
2023-06-28T11:04:27.705Z,7.38
2023-06-28T11:07:04.016Z,8.13
2023-06-28T11:09:31.037Z,8.60
2023-06-28T11:11:58.959Z,8.60
2023-06-28T11:14:31.883Z,8.48
2023-06-28T11:17:15.505Z,8.07
2023-06-28T11:19:46.001Z,8.00
2023-06-28T11:22:13.012Z,7.88
2023-06-28T11:24:46.119Z,8.18
2023-06-28T11:27:14.221Z,8.00
2023-06-28T11:29:55.041Z,8.05
2023-06-28T11:32:29.716Z,8.40
2023-06-28T11:34:59.519Z,7.57
2023-06-28T11:37:28.036Z,7.60
2023-06-28T11:39:54.948Z,8.85
2023-06-28T11:42:21.734Z,9.45
2023-06-28T11:44:50.351Z,7.78
2023-06-28T11:47:20.868Z,7.40
2023-06-28T11:49:50.034Z,7.53
2023-06-28T11:52:17.945Z,7.82
2023-06-28T11:54:44.656Z,7.90
2023-06-28T11:57:11.970Z,8.30
2023-06-28T11:59:45.568Z,7.78
2023-06-28T12:02:12.656Z,8.00
2023-06-28T12:04:40.265Z,8.07
2023-06-28T12:07:07.655Z,8.27
2023-06-28T12:09:36.229Z,7.72
2023-06-28T12:12:06.406Z,7.43
2023-06-28T12:14:46.223Z,7.80
2023-06-28T12:17:13.013Z,7.60
2023-06-28T12:19:41.688Z,7.82
2023-06-28T12:22:08.907Z,8.10
2023-06-28T12:24:37.305Z,8.20
2023-06-28T12:27:06.535Z,9.40
2023-06-28T12:29:36.452Z,8.65
2023-06-28T12:32:09.057Z,9.10
2023-06-28T12:34:37.946Z,8.73
2023-06-28T12:37:09.758Z,8.50
2023-06-28T12:39:39.186Z,7.70
2023-06-28T12:42:07.272Z,7.90
2023-06-28T12:44:50.310Z,7.72
2023-06-28T12:47:18.332Z,7.68
2023-06-28T12:49:48.990Z,8.02
2023-06-28T12:54:42.428Z,7.90
2023-06-28T12:57:09.109Z,8.25
2023-06-28T12:59:36.642Z,7.70
2023-06-28T13:02:03.774Z,7.95
2023-06-28T13:04:37.347Z,8.27
2023-06-28T13:07:08.480Z,8.25
2023-06-28T13:09:35.885Z,8.52
2023-06-28T13:12:03.657Z,7.78
2023-06-28T13:14:31.078Z,8.27
2023-06-28T13:16:57.993Z,7.80
2023-06-28T13:19:25.350Z,8.15
2023-06-28T13:21:53.418Z,7.90
2023-06-28T13:24:26.784Z,7.65
2023-06-28T13:26:54.648Z,8.50
2023-06-28T13:29:21.641Z,7.85
2023-06-28T13:31:48.343Z,8.32
2023-06-28T13:34:15.193Z,8.55
2023-06-28T13:36:43.169Z,8.38
2023-06-28T13:39:10.294Z,7.68
2023-06-28T13:41:37.094Z,8.15
2023-06-28T13:44:04.632Z,7.90
2023-06-28T13:46:31.313Z,8.05
2023-06-28T13:48:58.285Z,9.27
2023-06-28T13:51:25.294Z,8.10
2023-06-28T13:53:52.405Z,8.70
2023-06-28T13:56:19.125Z,8.50
2023-06-28T13:58:46.061Z,8.32
2023-06-28T14:01:13.059Z,8.40
2023-06-28T14:03:39.778Z,8.35
2023-06-28T14:06:06.960Z,7.72
2023-06-28T14:08:33.832Z,8.10
2023-06-28T14:11:00.479Z,8.13
2023-06-28T14:13:27.121Z,8.98
2023-06-28T14:15:53.701Z,7.75
2023-06-28T14:18:20.480Z,7.63
2023-06-28T14:20:47.165Z,8.45
2023-06-28T14:23:13.837Z,9.00
2023-06-28T14:25:40.940Z,8.05
2023-06-28T14:28:07.998Z,8.25
2023-06-28T14:30:34.710Z,8.18
2023-06-28T14:33:01.497Z,7.93
2023-06-28T14:35:28.196Z,7.70
2023-06-28T14:37:55.054Z,8.15
2023-06-28T14:40:21.749Z,8.15
2023-06-28T14:42:48.424Z,8.48
2023-06-28T14:45:15.550Z,8.00
2023-06-28T14:47:42.851Z,7.85
2023-06-28T14:50:10.363Z,8.27
2023-06-28T14:52:37.263Z,8.55
2023-06-28T14:55:07.168Z,8.52
2023-06-28T14:57:33.826Z,8.15
2023-06-28T15:00:00.467Z,8.88
2023-06-28T15:02:27.050Z,8.25
2023-06-28T15:04:53.678Z,9.68
2023-06-28T15:07:20.448Z,7.78
2023-06-28T15:09:47.241Z,8.48
2023-06-28T15:12:13.831Z,8.50
2023-06-28T15:14:40.775Z,8.60
2023-06-28T15:17:07.401Z,7.60
2023-06-28T15:19:34.301Z,8.13
2023-06-28T15:22:00.933Z,8.65
2023-06-28T15:24:27.641Z,8.38
2023-06-28T15:26:55.708Z,8.30
2023-06-28T15:29:22.286Z,7.63
2023-06-28T15:31:49.805Z,8.68
2023-06-28T15:34:16.436Z,8.13
2023-06-28T15:36:43.099Z,8.35
2023-06-28T15:39:10.153Z,6.80
2023-06-28T15:41:36.860Z,8.20
2023-06-28T15:44:24.243Z,8.75
2023-06-28T15:46:52.427Z,8.07
2023-06-28T15:49:19.725Z,8.00
2023-06-28T15:51:46.364Z,8.20
2023-06-28T15:54:13.056Z,8.40
2023-06-28T15:56:40.041Z,8.43
2023-06-28T15:59:06.672Z,7.90
2023-06-28T16:01:33.323Z,8.23
2023-06-28T16:04:00.072Z,7.95
2023-06-28T16:06:26.897Z,7.97
2023-06-28T16:08:53.476Z,8.32
2023-06-28T16:11:20.124Z,8.25
2023-06-28T16:13:46.780Z,9.13
2023-06-28T16:16:13.361Z,7.72
2023-06-28T16:18:40.017Z,8.10
2023-06-28T16:21:06.737Z,8.10
2023-06-28T16:23:33.742Z,7.38
2023-06-28T16:26:00.441Z,8.25
2023-06-28T16:28:27.102Z,7.80
2023-06-28T16:30:54.755Z,7.57
2023-06-28T16:33:21.550Z,7.55
2023-06-28T16:35:48.136Z,7.53
2023-06-28T16:38:14.851Z,8.52
2023-06-28T16:40:41.668Z,8.57
2023-06-28T16:43:09.432Z,8.15
2023-06-28T16:45:36.304Z,7.53
2023-06-28T16:48:03.107Z,8.13
2023-06-28T16:50:29.839Z,7.90
2023-06-28T16:52:56.433Z,7.18
2023-06-28T16:55:23.253Z,7.43
2023-06-28T16:57:50.011Z,8.07
2023-06-28T17:00:16.957Z,8.43
2023-06-28T17:02:47.806Z,7.57
2023-06-28T17:05:15.509Z,8.18
2023-06-28T17:07:42.399Z,8.02
2023-06-28T17:10:10.004Z,8.23
2023-06-28T17:12:36.752Z,7.70
2023-06-28T17:15:03.905Z,7.22
2023-06-28T17:17:30.567Z,7.20
2023-06-28T17:19:57.251Z,7.90
2023-06-28T17:22:23.890Z,7.45
2023-06-28T17:24:51.941Z,7.80
2023-06-28T17:27:19.346Z,7.93
2023-06-28T17:29:45.986Z,7.25
2023-06-28T17:32:12.613Z,8.43
2023-06-28T17:34:39.535Z,7.75
2023-06-28T17:37:06.197Z,7.03
2023-06-28T17:39:34.314Z,8.32
2023-06-28T17:42:00.977Z,8.15
2023-06-28T17:44:27.522Z,7.53
2023-06-28T17:46:54.175Z,7.60
2023-06-28T17:49:20.754Z,7.00
2023-06-28T17:51:47.443Z,7.47
2023-06-28T17:54:14.028Z,8.05
2023-06-28T17:56:40.612Z,7.63
2023-06-28T17:59:07.214Z,7.97
2023-06-28T18:01:33.787Z,7.53
2023-06-28T18:04:00.665Z,7.45
2023-06-28T18:06:27.256Z,8.10
2023-06-28T18:08:53.887Z,7.38
2023-06-28T18:11:20.508Z,7.40
2023-06-28T18:13:47.054Z,7.80
2023-06-28T18:16:13.652Z,10.55
2023-06-28T18:18:40.230Z,7.72
2023-06-28T18:21:06.979Z,8.35
2023-06-28T18:23:33.803Z,7.63
2023-06-28T18:26:00.460Z,7.50
2023-06-28T18:28:27.294Z,7.97
2023-06-28T18:30:53.907Z,7.90
2023-06-28T18:33:23.246Z,7.78
2023-06-28T18:35:50.057Z,7.80
2023-06-28T18:38:16.666Z,7.28
2023-06-28T18:40:43.515Z,7.28
2023-06-28T18:43:10.621Z,7.55
2023-06-28T18:45:37.444Z,8.45
2023-06-28T18:48:04.492Z,7.60
2023-06-28T18:50:31.144Z,9.02
2023-06-28T18:52:57.689Z,8.23
2023-06-28T18:55:25.365Z,7.85
2023-06-28T18:57:56.021Z,7.65
2023-06-28T19:02:49.474Z,7.80
2023-06-28T19:05:18.290Z,7.22
2023-06-28T19:07:46.078Z,7.53
2023-06-28T19:10:13.942Z,7.60
2023-06-28T19:12:40.478Z,8.90
2023-06-28T19:15:08.445Z,7.53
2023-06-28T19:17:35.161Z,8.05
2023-06-28T19:20:01.831Z,7.78
2023-06-28T19:22:28.431Z,8.00
2023-06-28T19:24:55.249Z,8.30
2023-06-28T19:27:21.975Z,8.43
2023-06-28T19:29:48.552Z,10.82
2023-06-28T19:32:15.099Z,8.13
2023-06-28T19:34:41.795Z,8.70
2023-06-28T19:37:08.388Z,8.43
2023-06-28T19:39:34.979Z,8.13
2023-06-28T19:42:01.591Z,7.70
2023-06-28T19:44:28.162Z,7.68
2023-06-28T19:46:56.111Z,8.38
2023-06-28T19:49:23.611Z,7.57
2023-06-28T19:51:50.382Z,7.55
2023-06-28T19:54:17.114Z,7.20
2023-06-28T19:56:44.519Z,8.05
2023-06-28T19:59:11.229Z,7.57
2023-06-28T20:01:40.362Z,7.72
2023-06-28T20:04:07.412Z,7.47
2023-06-28T20:06:41.667Z,7.65
2023-06-28T20:09:09.308Z,7.80
2023-06-28T20:11:36.737Z,7.82
2023-06-28T20:14:05.481Z,7.88
2023-06-28T20:16:32.520Z,7.82
2023-06-28T20:18:59.167Z,8.38
2023-06-28T20:21:25.982Z,7.72
2023-06-28T20:23:55.087Z,8.43
2023-06-28T20:26:21.679Z,8.07
2023-06-28T20:28:50.258Z,8.00
2023-06-28T20:31:16.933Z,7.88
2023-06-28T20:33:43.845Z,7.78
2023-06-28T20:36:10.613Z,7.82
2023-06-28T20:38:37.456Z,7.50
2023-06-28T20:41:06.547Z,7.63
2023-06-28T20:43:36.908Z,7.72
2023-06-28T20:46:04.427Z,8.75
2023-06-28T20:48:33.755Z,7.60
2023-06-28T20:51:01.093Z,8.07
2023-06-28T20:53:27.745Z,8.10
2023-06-28T20:55:54.324Z,7.88
2023-06-28T20:58:20.909Z,7.70
2023-06-28T21:00:47.924Z,8.35
2023-06-28T21:03:15.338Z,7.85
2023-06-28T21:05:42.103Z,8.05
2023-06-28T21:08:08.870Z,8.05
2023-06-28T21:10:38.344Z,7.95
2023-06-28T21:13:08.092Z,7.78
2023-06-28T21:15:34.792Z,8.20
2023-06-28T21:18:01.391Z,7.57
2023-06-28T21:20:28.098Z,7.97
2023-06-28T21:22:54.662Z,7.82
2023-06-28T21:25:21.300Z,7.57
2023-06-28T21:27:47.946Z,8.60
2023-06-28T21:30:15.344Z,8.27
2023-06-28T21:32:43.685Z,8.57
2023-06-28T21:35:10.475Z,8.25
2023-06-28T21:37:37.139Z,8.00
2023-06-28T21:40:04.278Z,8.05
2023-06-28T21:42:30.891Z,7.75
2023-06-28T21:44:57.540Z,7.78
2023-06-28T21:47:24.110Z,7.57
2023-06-28T21:49:50.647Z,8.52
2023-06-28T21:52:17.928Z,7.35
2023-06-28T21:54:44.609Z,7.72
2023-06-28T21:57:11.284Z,7.97
2023-06-28T21:59:37.867Z,8.18
2023-06-28T22:02:05.020Z,7.70
2023-06-28T22:04:33.268Z,7.78
2023-06-28T22:07:05.863Z,7.95
2023-06-28T22:09:33.890Z,7.68
2023-06-28T22:12:04.906Z,8.40
2023-06-28T22:14:31.600Z,8.48
2023-06-28T22:16:58.248Z,9.27
2023-06-28T22:19:27.339Z,8.25
2023-06-28T22:21:53.943Z,8.02
2023-06-28T22:24:20.539Z,8.35
2023-06-28T22:26:47.142Z,8.38
2023-06-28T22:29:13.734Z,7.95
2023-06-28T22:31:40.395Z,7.70
2023-06-28T22:34:08.178Z,8.18
2023-06-28T22:36:35.727Z,8.48
2023-06-28T22:39:03.121Z,8.32
2023-06-28T22:41:29.843Z,9.07
2023-06-28T22:43:56.432Z,8.82
2023-06-28T22:46:23.125Z,8.40
2023-06-28T22:48:49.692Z,8.70
2023-06-28T22:51:17.986Z,8.43
2023-06-28T22:53:48.116Z,8.77
2023-06-28T22:56:16.266Z,7.88
2023-06-28T22:58:43.056Z,8.68
2023-06-28T23:01:11.216Z,8.30
2023-06-28T23:03:37.864Z,8.60
2023-06-28T23:06:04.601Z,8.98
2023-06-28T23:08:32.915Z,8.13
2023-06-28T23:10:59.612Z,8.50
2023-06-28T23:13:27.114Z,8.25
2023-06-28T23:15:53.687Z,9.32
2023-06-28T23:18:20.857Z,8.45
2023-06-28T23:20:57.088Z,8.60
2023-06-28T23:23:25.354Z,9.15
2023-06-28T23:25:52.794Z,8.45
2023-06-28T23:28:23.450Z,8.40
2023-06-28T23:33:18.080Z,9.88
2023-06-28T23:35:46.063Z,8.75
2023-06-28T23:38:13.705Z,8.60
2023-06-28T23:40:41.162Z,9.23
2023-06-28T23:43:08.531Z,8.90
2023-06-28T23:45:42.122Z,8.88
2023-06-28T23:48:09.581Z,8.90
2023-06-28T23:50:36.197Z,8.88
2023-06-28T23:53:03.256Z,9.48
2023-06-28T23:55:30.534Z,9.27
2023-06-28T23:57:57.824Z,9.23
